Time;durP1;ratioP1;P1;durP2;ratioP2;P2;SDS_P1;SDS_P2;PMS_P1;PMS_P2;Temp;Humidity;BMP_temperature;BMP_pressure;BME280_temperature;BME280_humidity;BME280_pressure;Samples;Min_cycle;Max_cycle;Signal;HPM_P1;HPM_P2
2022/12/26 00:01:46;;;;;;;4.53;4.13;;;;;;;;;;5035093;28;20210;-66
2022/12/26 00:04:12;;;;;;;4.78;4.18;;;;;;;;;;5034739;28;20542;-67
2022/12/26 00:06:40;;;;;;;4.78;4.03;;;;;;;;;;5034569;28;20477;-66
2022/12/26 00:09:06;;;;;;;5.40;3.70;;;;;;;;;;5034839;28;20502;-66
2022/12/26 00:11:33;;;;;;;4.35;3.78;;;;;;;;;;5035091;28;20210;-66
2022/12/26 00:14:01;;;;;;;4.10;3.70;;;;;;;;;;5035391;28;20209;-66
2022/12/26 00:16:27;;;;;;;4.07;3.75;;;;;;;;;;5034824;28;20214;-66
2022/12/26 00:18:53;;;;;;;3.65;3.45;;;;;;;;;;5034863;28;20540;-66
2022/12/26 00:21:20;;;;;;;3.08;2.97;;;;;;;;;;5035066;28;20229;-66
2022/12/26 00:23:48;;;;;;;3.75;3.25;;;;;;;;;;5035008;28;20278;-66
2022/12/26 00:26:15;;;;;;;7.60;3.47;;;;;;;;;;5035106;28;20214;-66
2022/12/26 00:28:41;;;;;;;3.30;3.10;;;;;;;;;;5034582;28;20251;-66
2022/12/26 00:31:08;;;;;;;3.47;3.22;;;;;;;;;;5034656;28;20435;-66
2022/12/26 00:33:35;;;;;;;2.80;2.70;;;;;;;;;;5034679;28;20217;-66
2022/12/26 00:36:02;;;;;;;4.80;3.40;;;;;;;;;;5033571;28;20244;-66
2022/12/26 00:38:29;;;;;;;3.25;3.00;;;;;;;;;;5034180;28;20241;-66
2022/12/26 00:40:56;;;;;;;3.65;3.42;;;;;;;;;;5035326;27;20267;-66
2022/12/26 00:43:23;;;;;;;3.83;3.45;;;;;;;;;;5040110;28;20225;-66
2022/12/26 00:45:49;;;;;;;3.58;3.33;;;;;;;;;;5040513;28;20209;-66
2022/12/26 00:48:15;;;;;;;3.40;3.20;;;;;;;;;;5040256;28;20210;-66
2022/12/26 00:50:41;;;;;;;3.92;3.50;;;;;;;;;;5040400;28;20198;-66
2022/12/26 00:53:08;;;;;;;3.90;3.58;;;;;;;;;;5040103;28;20235;-66
2022/12/26 00:55:34;;;;;;;3.22;2.95;;;;;;;;;;5040156;28;20204;-66
2022/12/26 00:58:01;;;;;;;3.58;3.28;;;;;;;;;;5039889;28;20223;-66
2022/12/26 01:00:28;;;;;;;3.60;2.97;;;;;;;;;;5039990;28;20198;-66
2022/12/26 01:02:54;;;;;;;3.70;3.30;;;;;;;;;;5039991;28;20219;-66
2022/12/26 01:05:20;;;;;;;3.95;3.65;;;;;;;;;;5039955;28;20222;-66
2022/12/26 01:07:46;;;;;;;4.88;4.40;;;;;;;;;;5039906;28;20286;-66
2022/12/26 01:10:13;;;;;;;4.35;4.05;;;;;;;;;;5040016;28;20197;-66
2022/12/26 01:12:39;;;;;;;8.82;4.82;;;;;;;;;;5039975;28;20202;-66
2022/12/26 01:15:07;;;;;;;4.82;4.40;;;;;;;;;;5039845;28;20423;-66
2022/12/26 01:17:34;;;;;;;5.80;5.20;;;;;;;;;;5039662;28;20197;-66
2022/12/26 01:20:00;;;;;;;6.28;5.57;;;;;;;;;;5039159;28;20202;-66
2022/12/26 01:22:27;;;;;;;6.20;5.55;;;;;;;;;;5039741;28;20201;-66
2022/12/26 01:24:54;;;;;;;5.85;5.25;;;;;;;;;;5039469;28;20491;-66
2022/12/26 01:27:20;;;;;;;6.07;5.47;;;;;;;;;;5039491;28;20343;-66
2022/12/26 01:29:47;;;;;;;4.78;4.45;;;;;;;;;;5039441;28;20243;-66
2022/12/26 01:32:14;;;;;;;4.82;4.30;;;;;;;;;;5039725;28;20235;-66
2022/12/26 01:34:41;;;;;;;4.35;4.00;;;;;;;;;;5039332;28;20231;-66
2022/12/26 01:37:07;;;;;;;3.83;3.40;;;;;;;;;;5039679;28;20201;-66
2022/12/26 01:39:33;;;;;;;4.18;3.83;;;;;;;;;;5038889;28;20562;-66
2022/12/26 01:41:59;;;;;;;3.70;3.50;;;;;;;;;;5039645;28;20498;-66
2022/12/26 01:44:44;;;;;;;4.55;3.28;;;;;;;;;;5039648;28;20533;-66
2022/12/26 01:47:12;;;;;;;2.97;2.85;;;;;;;;;;5038820;28;20198;-66
2022/12/26 01:49:41;;;;;;;3.63;2.70;;;;;;;;;;5038466;28;20251;-66
2022/12/26 01:52:08;;;;;;;3.05;2.95;;;;;;;;;;5039443;28;20204;-66
2022/12/26 01:54:37;;;;;;;3.65;3.35;;;;;;;;;;5039339;28;20247;-66
2022/12/26 01:57:04;;;;;;;3.80;3.30;;;;;;;;;;5039462;28;20201;-66
2022/12/26 01:59:33;;;;;;;3.53;3.33;;;;;;;;;;5038995;28;20434;-66
2022/12/26 02:02:00;;;;;;;3.75;3.20;;;;;;;;;;5039363;28;20210;-66
2022/12/26 02:07:13;;;;;;;3.55;3.30;;;;;;;;;;5038993;28;20229;-66
2022/12/26 02:09:40;;;;;;;3.22;3.03;;;;;;;;;;5038603;28;20219;-66
2022/12/26 02:12:08;;;;;;;3.33;3.17;;;;;;;;;;5039107;28;20202;-66
2022/12/26 02:14:35;;;;;;;3.65;3.35;;;;;;;;;;5039066;28;20206;-66
2022/12/26 02:17:01;;;;;;;3.67;3.30;;;;;;;;;;5039150;28;20224;-66
2022/12/26 02:19:31;;;;;;;3.33;3.13;;;;;;;;;;5038703;28;20202;-66
2022/12/26 02:22:06;;;;;;;3.50;3.30;;;;;;;;;;5038968;28;20215;-66
2022/12/26 02:25:04;;;;;;;5.03;3.40;;;;;;;;;;5038864;28;20463;-66
2022/12/26 02:27:37;;;;;;;3.35;3.17;;;;;;;;;;5038992;28;20218;-66
2022/12/26 02:30:05;;;;;;;4.22;3.92;;;;;;;;;;5038707;28;20505;-66
2022/12/26 02:32:39;;;;;;;4.07;3.47;;;;;;;;;;5038953;28;20401;-66
2022/12/26 02:35:09;;;;;;;4.65;3.70;;;;;;;;;;5038857;28;20215;-66
2022/12/26 02:37:44;;;;;;;4.65;4.20;;;;;;;;;;5038617;28;20302;-66
2022/12/26 02:40:21;;;;;;;3.97;3.60;;;;;;;;;;5038229;28;20242;-66
2022/12/26 02:42:53;;;;;;;6.53;4.63;;;;;;;;;;5038875;28;20198;-66
2022/12/26 02:48:13;;;;;;;5.00;4.40;;;;;;;;;;5038209;28;20391;-66
2022/12/26 03:13:15;;;;;;;4.03;3.72;;;;;;;;;;5041679;28;20257;-66
2022/12/26 03:18:30;;;;;;;4.93;4.53;;;;;;;;;;5041276;28;20226;-66
2022/12/26 03:20:59;;;;;;;5.35;4.88;;;;;;;;;;5041548;28;20205;-66
2022/12/26 03:23:25;;;;;;;5.32;4.82;;;;;;;;;;5041947;28;20235;-66
2022/12/26 03:28:37;;;;;;;6.05;4.80;;;;;;;;;;5040872;28;20293;-66
2022/12/26 03:31:03;;;;;;;5.10;4.50;;;;;;;;;;5041823;28;20235;-66
2022/12/26 03:36:22;;;;;;;5.00;4.50;;;;;;;;;;5041412;28;20227;-66
2022/12/26 03:38:54;;;;;;;6.32;5.72;;;;;;;;;;5041235;28;20550;-66
2022/12/26 04:20:33;;;;;;;4.75;4.35;;;;;;;;;;5040600;28;20201;-66
2022/12/26 04:45:11;;;;;;;4.32;3.92;;;;;;;;;;5040206;28;20239;-66
2022/12/26 04:50:10;;;;;;;4.82;3.63;;;;;;;;;;5040498;28;20202;-66
2022/12/26 04:50:23;;;;;;;5.00;4.30;;;;;;;;;;5039921;28;20194;-66
2022/12/26 04:52:57;;;;;;;3.78;3.47;;;;;;;;;;5040137;28;20207;-66
2022/12/26 04:55:24;;;;;;;3.65;3.45;;;;;;;;;;5040257;28;20264;-66
2022/12/26 04:57:51;;;;;;;3.60;3.30;;;;;;;;;;5039936;28;20212;-66
2022/12/26 05:00:17;;;;;;;5.07;4.00;;;;;;;;;;5039749;28;20201;-66
2022/12/26 05:11:00;;;;;;;3.30;3.00;;;;;;;;;;5039834;28;20197;-66
2022/12/26 05:13:27;;;;;;;3.85;3.50;;;;;;;;;;5039925;28;20251;-66
2022/12/26 05:29:46;;;;;;;3.97;3.67;;;;;;;;;;5038678;28;20193;-66
2022/12/26 05:32:12;;;;;;;4.25;3.92;;;;;;;;;;5039492;28;20205;-66
2022/12/26 05:34:37;;;;;;;4.05;3.75;;;;;;;;;;5039702;28;20239;-66
2022/12/26 05:37:03;;;;;;;4.53;3.80;;;;;;;;;;5039710;28;20198;-66
2022/12/26 05:39:30;;;;;;;3.13;3.03;;;;;;;;;;5039363;28;20517;-66
2022/12/26 05:41:56;;;;;;;3.40;3.20;;;;;;;;;;5039770;28;20551;-66
2022/12/26 05:44:22;;;;;;;3.05;2.95;;;;;;;;;;5039544;28;20451;-66
2022/12/26 05:46:50;;;;;;;3.80;3.42;;;;;;;;;;5039459;28;20497;-66
2022/12/26 05:49:16;;;;;;;5.03;3.60;;;;;;;;;;5039157;28;20397;-66
2022/12/26 05:51:42;;;;;;;4.35;3.95;;;;;;;;;;5039616;28;20214;-66
2022/12/26 05:54:08;;;;;;;8.75;4.72;;;;;;;;;;5039457;28;20202;-66
2022/12/26 05:56:35;;;;;;;5.22;4.28;;;;;;;;;;5039379;28;20198;-66
2022/12/26 05:59:01;;;;;;;10.52;5.13;;;;;;;;;;5039051;28;20242;-66
2022/12/26 06:01:28;;;;;;;6.15;4.55;;;;;;;;;;5039191;28;20219;-66
2022/12/26 06:03:57;;;;;;;6.57;4.80;;;;;;;;;;5039348;28;20198;-66
2022/12/26 06:06:24;;;;;;;5.28;4.30;;;;;;;;;;5039334;28;20229;-66
2022/12/26 06:08:51;;;;;;;7.50;4.93;;;;;;;;;;5038941;28;20246;-66
2022/12/26 06:11:18;;;;;;;5.05;4.60;;;;;;;;;;5039248;28;20206;-66
2022/12/26 06:13:44;;;;;;;6.88;4.72;;;;;;;;;;5039174;28;20201;-66
2022/12/26 06:16:12;;;;;;;4.95;4.28;;;;;;;;;;5039017;28;20255;-66
2022/12/26 06:18:38;;;;;;;4.68;4.22;;;;;;;;;;5038836;28;20448;-66
2022/12/26 06:21:06;;;;;;;6.95;4.20;;;;;;;;;;5039086;28;20209;-66
2022/12/26 06:23:33;;;;;;;6.40;4.45;;;;;;;;;;5039209;28;20205;-66
2022/12/26 06:25:59;;;;;;;5.35;4.57;;;;;;;;;;5039009;28;20217;-66
2022/12/26 06:28:26;;;;;;;4.82;4.40;;;;;;;;;;5038697;28;20218;-66
2022/12/26 06:30:52;;;;;;;4.40;4.00;;;;;;;;;;5039496;28;20201;-66
2022/12/26 06:33:19;;;;;;;5.53;3.78;;;;;;;;;;5038973;28;20194;-66
2022/12/26 06:35:45;;;;;;;4.10;3.75;;;;;;;;;;5042210;28;20498;-66
2022/12/26 06:38:12;;;;;;;4.20;3.75;;;;;;;;;;5042077;28;20448;-66
2022/12/26 06:40:39;;;;;;;4.00;3.60;;;;;;;;;;5042586;27;20423;-66
2022/12/26 06:43:06;;;;;;;4.43;4.03;;;;;;;;;;5042275;28;20198;-66
2022/12/26 06:45:32;;;;;;;4.75;4.30;;;;;;;;;;5042595;28;20597;-66
2022/12/26 06:47:58;;;;;;;4.97;4.38;;;;;;;;;;5042264;28;20505;-66
2022/12/26 06:50:25;;;;;;;4.32;4.03;;;;;;;;;;5041943;28;20205;-66
2022/12/26 06:52:51;;;;;;;4.95;4.45;;;;;;;;;;5041991;28;20266;-66
2022/12/26 06:55:19;;;;;;;5.70;3.95;;;;;;;;;;5041962;28;20266;-67
2022/12/26 06:57:45;;;;;;;5.10;4.70;;;;;;;;;;5041954;28;20210;-67
2022/12/26 07:00:12;;;;;;;4.63;4.25;;;;;;;;;;5041828;28;20427;-67
2022/12/26 07:02:38;;;;;;;4.32;4.03;;;;;;;;;;5042094;27;20197;-67
2022/12/26 07:05:05;;;;;;;4.82;4.45;;;;;;;;;;5042008;28;20259;-67
2022/12/26 07:07:31;;;;;;;4.28;3.88;;;;;;;;;;5041959;27;20202;-67
2022/12/26 07:09:57;;;;;;;5.03;4.43;;;;;;;;;;5041423;28;20197;-67
2022/12/26 07:12:25;;;;;;;5.03;4.57;;;;;;;;;;5041583;28;20198;-68
2022/12/26 07:14:51;;;;;;;3.97;3.65;;;;;;;;;;5042069;28;20524;-67
2022/12/26 07:17:17;;;;;;;11.30;7.78;;;;;;;;;;5042019;28;20243;-67
2022/12/26 07:19:43;;;;;;;7.10;6.47;;;;;;;;;;5041573;28;20202;-67
2022/12/26 07:22:10;;;;;;;7.38;5.03;;;;;;;;;;5041714;28;20210;-67
2022/12/26 07:24:36;;;;;;;5.95;4.47;;;;;;;;;;5041292;28;20212;-67
2022/12/26 07:27:02;;;;;;;6.25;4.93;;;;;;;;;;5041535;27;20198;-67
2022/12/26 07:29:30;;;;;;;7.13;4.65;;;;;;;;;;5041109;28;20210;-67
2022/12/26 07:31:57;;;;;;;5.65;5.03;;;;;;;;;;5040681;28;20276;-67
2022/12/26 07:34:24;;;;;;;8.30;4.32;;;;;;;;;;5041276;28;20243;-67
2022/12/26 07:36:50;;;;;;;5.25;4.72;;;;;;;;;;5041765;28;20216;-68
2022/12/26 07:39:16;;;;;;;6.82;4.80;;;;;;;;;;5041088;28;20453;-67
2022/12/26 07:41:58;;;;;;;5.88;4.68;;;;;;;;;;5041702;28;20502;-67
2022/12/26 07:44:24;;;;;;;4.30;4.00;;;;;;;;;;5041444;28;20370;-68
2022/12/26 07:46:52;;;;;;;5.75;4.53;;;;;;;;;;5040158;28;20589;-67
2022/12/26 07:49:18;;;;;;;4.18;3.88;;;;;;;;;;5040972;28;20202;-67
2022/12/26 07:51:44;;;;;;;4.00;3.70;;;;;;;;;;5041670;28;20202;-67
2022/12/26 07:54:11;;;;;;;4.68;3.97;;;;;;;;;;5041409;28;20205;-67
2022/12/26 07:56:37;;;;;;;3.33;3.13;;;;;;;;;;5041430;28;20239;-67
2022/12/26 07:59:04;;;;;;;4.18;3.25;;;;;;;;;;5040669;28;20209;-67
2022/12/26 08:01:30;;;;;;;5.85;3.15;;;;;;;;;;5041077;28;20194;-67
2022/12/26 08:03:58;;;;;;;3.25;3.05;;;;;;;;;;5040946;28;20210;-67
2022/12/26 08:06:24;;;;;;;3.40;3.17;;;;;;;;;;5040711;28;20588;-67
2022/12/26 08:08:51;;;;;;;3.63;3.40;;;;;;;;;;5040862;28;20505;-67
2022/12/26 08:11:18;;;;;;;3.15;2.90;;;;;;;;;;5040949;28;20513;-67
2022/12/26 08:13:45;;;;;;;3.72;3.33;;;;;;;;;;5040909;28;20198;-67
2022/12/26 08:16:12;;;;;;;5.38;4.88;;;;;;;;;;5040894;27;20197;-67
2022/12/26 08:18:39;;;;;;;10.30;8.13;;;;;;;;;;5040232;28;20205;-67
2022/12/26 08:21:06;;;;;;;9.27;5.30;;;;;;;;;;5040565;28;20227;-67
2022/12/26 08:23:33;;;;;;;5.80;5.18;;;;;;;;;;5040827;28;20198;-67
2022/12/26 08:25:59;;;;;;;8.57;4.82;;;;;;;;;;5040640;28;20259;-67
2022/12/26 08:28:25;;;;;;;4.93;4.53;;;;;;;;;;5040150;28;20255;-67
2022/12/26 08:30:51;;;;;;;5.20;4.70;;;;;;;;;;5040543;28;20198;-67
2022/12/26 08:33:18;;;;;;;5.57;4.93;;;;;;;;;;5040442;27;20219;-67
2022/12/26 08:35:44;;;;;;;6.72;5.10;;;;;;;;;;5040871;28;20205;-67
2022/12/26 08:38:11;;;;;;;6.05;4.93;;;;;;;;;;5040096;28;20551;-67
2022/12/26 08:40:38;;;;;;;8.38;5.40;;;;;;;;;;5040391;28;20209;-67
2022/12/26 08:43:04;;;;;;;4.80;4.47;;;;;;;;;;5040434;27;20198;-67
2022/12/26 08:45:31;;;;;;;6.80;5.05;;;;;;;;;;5040158;28;20222;-67
2022/12/26 08:47:58;;;;;;;5.82;5.35;;;;;;;;;;5040013;28;20262;-67
2022/12/26 08:50:24;;;;;;;8.65;5.70;;;;;;;;;;5040305;28;20205;-67
2022/12/26 08:52:50;;;;;;;7.10;5.55;;;;;;;;;;5040231;28;20198;-67
2022/12/26 08:55:18;;;;;;;9.80;6.60;;;;;;;;;;5040218;28;20554;-67
2022/12/26 08:57:44;;;;;;;5.60;5.07;;;;;;;;;;5039864;28;20198;-67
2022/12/26 09:00:11;;;;;;;7.03;5.90;;;;;;;;;;5039811;28;20235;-67
2022/12/26 09:02:37;;;;;;;6.10;5.50;;;;;;;;;;5039949;28;20242;-67
2022/12/26 09:05:04;;;;;;;6.70;5.40;;;;;;;;;;5040095;28;20428;-67
2022/12/26 09:07:30;;;;;;;7.05;5.28;;;;;;;;;;5039917;28;20210;-67
2022/12/26 09:09:56;;;;;;;5.57;4.95;;;;;;;;;;5039755;28;20475;-67
2022/12/26 09:12:24;;;;;;;6.85;6.18;;;;;;;;;;5039970;28;20562;-67
2022/12/26 09:14:50;;;;;;;9.60;7.25;;;;;;;;;;5039946;28;20528;-67
2022/12/26 09:17:17;;;;;;;6.82;6.15;;;;;;;;;;5039643;27;20194;-67
2022/12/26 09:19:43;;;;;;;8.60;7.03;;;;;;;;;;5039873;28;20493;-67
2022/12/26 09:24:53;;;;;;;8.75;6.50;;;;;;;;;;5039671;28;20196;-59
2022/12/26 09:27:20;;;;;;;6.28;5.60;;;;;;;;;;5033659;28;20214;-59
2022/12/26 09:29:47;;;;;;;6.32;5.72;;;;;;;;;;5028740;28;20199;-59
2022/12/26 09:32:13;;;;;;;6.00;5.47;;;;;;;;;;5030593;28;20194;-59
2022/12/26 09:34:40;;;;;;;6.18;5.05;;;;;;;;;;5028804;28;20240;-59
2022/12/26 09:37:06;;;;;;;6.68;5.88;;;;;;;;;;5029261;28;20201;-59
2022/12/26 09:39:32;;;;;;;5.63;5.20;;;;;;;;;;5029969;28;20239;-59
2022/12/26 09:42:01;;;;;;;8.02;5.80;;;;;;;;;;5028438;28;20424;-59
2022/12/26 09:44:30;;;;;;;6.15;5.60;;;;;;;;;;5028971;28;20520;-59
2022/12/26 09:47:03;;;;;;;6.15;5.40;;;;;;;;;;5039266;28;20229;-59
2022/12/26 09:49:31;;;;;;;6.28;5.78;;;;;;;;;;5039283;28;20430;-59
2022/12/26 09:51:59;;;;;;;6.57;6.07;;;;;;;;;;5039342;28;20209;-59
2022/12/26 09:54:29;;;;;;;7.20;5.85;;;;;;;;;;5039432;28;20432;-59
2022/12/26 09:56:56;;;;;;;6.28;5.75;;;;;;;;;;5039360;28;20387;-59
2022/12/26 09:59:23;;;;;;;6.30;5.50;;;;;;;;;;5039160;28;20197;-57
2022/12/26 10:01:49;;;;;;;6.13;5.53;;;;;;;;;;5039080;28;20198;-57
2022/12/26 10:04:21;;;;;;;6.75;5.43;;;;;;;;;;5039284;28;20535;-59
2022/12/26 10:06:48;;;;;;;6.90;4.63;;;;;;;;;;5039179;28;20235;-58
2022/12/26 10:09:30;;;;;;;4.88;4.57;;;;;;;;;;5039656;28;20206;-59
2022/12/26 10:12:01;;;;;;;5.45;5.05;;;;;;;;;;5042833;28;20234;-59
2022/12/26 10:14:31;;;;;;;4.70;4.43;;;;;;;;;;5031529;28;20193;-59
2022/12/26 10:17:01;;;;;;;5.03;4.40;;;;;;;;;;5031912;28;20202;-59
2022/12/26 10:19:37;;;;;;;5.30;4.95;;;;;;;;;;5031071;28;20502;-59
2022/12/26 10:22:07;;;;;;;9.98;6.60;;;;;;;;;;5022722;28;20515;-59
2022/12/26 10:24:35;;;;;;;9.25;7.72;;;;;;;;;;5023072;28;20243;-59
2022/12/26 10:27:03;;;;;;;10.27;7.53;;;;;;;;;;5022592;28;20222;-60
2022/12/26 10:29:31;;;;;;;8.80;7.70;;;;;;;;;;5022189;28;20236;-59
2022/12/26 10:31:59;;;;;;;8.30;6.90;;;;;;;;;;5022658;28;20427;-59
2022/12/26 10:34:27;;;;;;;7.95;6.32;;;;;;;;;;5022645;28;20203;-59
2022/12/26 10:36:56;;;;;;;9.93;7.68;;;;;;;;;;5022697;28;20232;-58
2022/12/26 10:39:24;;;;;;;8.05;6.95;;;;;;;;;;5022181;28;20424;-58
2022/12/26 10:41:52;;;;;;;7.75;6.93;;;;;;;;;;5022632;28;20202;-57
2022/12/26 10:44:19;;;;;;;9.13;7.55;;;;;;;;;;5022400;28;20205;-59
2022/12/26 10:46:53;;;;;;;7.28;6.55;;;;;;;;;;5022349;28;20215;-58
2022/12/26 10:49:21;;;;;;;11.38;6.70;;;;;;;;;;5021899;28;20235;-59
2022/12/26 10:51:48;;;;;;;8.50;6.88;;;;;;;;;;5022278;28;20244;-58
2022/12/26 10:54:17;;;;;;;8.55;6.95;;;;;;;;;;5021056;28;20617;-58
2022/12/26 10:56:43;;;;;;;7.38;6.68;;;;;;;;;;5033552;28;20206;-58
2022/12/26 10:59:14;;;;;;;9.05;7.45;;;;;;;;;;5035530;28;20246;-57
2022/12/26 11:01:46;;;;;;;12.48;8.65;;;;;;;;;;5036116;28;20214;-56
2022/12/26 11:04:15;;;;;;;11.27;8.45;;;;;;;;;;5036344;28;20206;-56
2022/12/26 11:06:42;;;;;;;9.75;8.75;;;;;;;;;;5037824;28;20237;-59
2022/12/26 11:09:22;;;;;;;10.23;8.57;;;;;;;;;;5041493;28;20269;-59
2022/12/26 11:11:53;;;;;;;10.23;8.63;;;;;;;;;;5041815;28;20198;-59
2022/12/26 11:14:26;;;;;;;11.00;7.97;;;;;;;;;;5041611;28;20229;-59
2022/12/26 11:16:52;;;;;;;15.30;9.25;;;;;;;;;;5041578;28;20231;-59
2022/12/26 11:19:26;;;;;;;13.77;8.73;;;;;;;;;;5041239;28;20565;-58
2022/12/26 11:21:52;;;;;;;12.10;8.43;;;;;;;;;;5041501;28;20206;-59
2022/12/26 11:24:19;;;;;;;12.07;9.13;;;;;;;;;;5041415;28;20212;-58
2022/12/26 11:26:46;;;;;;;10.80;8.52;;;;;;;;;;5041673;28;20263;-58
2022/12/26 11:29:15;;;;;;;10.77;9.57;;;;;;;;;;5041326;28;20263;-59
2022/12/26 11:31:42;;;;;;;11.07;8.38;;;;;;;;;;5041626;28;20213;-59
2022/12/26 11:34:10;;;;;;;8.73;7.82;;;;;;;;;;5041540;27;20202;-59
2022/12/26 11:36:39;;;;;;;11.55;6.93;;;;;;;;;;5041289;27;20194;-59
2022/12/26 11:39:06;;;;;;;7.13;6.43;;;;;;;;;;5040847;28;20280;-59
2022/12/26 11:41:38;;;;;;;9.15;6.55;;;;;;;;;;5041543;28;20198;-59
2022/12/26 11:44:12;;;;;;;8.90;6.50;;;;;;;;;;5041832;28;20198;-59
2022/12/26 11:46:41;;;;;;;9.45;6.10;;;;;;;;;;5041210;28;20213;-59
2022/12/26 11:49:15;;;;;;;7.43;6.22;;;;;;;;;;5041147;28;20198;-59
2022/12/26 11:51:42;;;;;;;6.60;5.90;;;;;;;;;;5041694;28;20207;-59
2022/12/26 11:54:13;;;;;;;5.63;5.22;;;;;;;;;;5041570;28;20198;-59
2022/12/26 11:56:39;;;;;;;5.88;5.30;;;;;;;;;;5041150;28;20422;-59
2022/12/26 11:59:16;;;;;;;6.47;5.88;;;;;;;;;;5041008;28;20254;-59
2022/12/26 12:01:43;;;;;;;7.30;6.03;;;;;;;;;;5041359;28;20349;-59
2022/12/26 12:04:10;;;;;;;9.65;6.50;;;;;;;;;;5041406;28;20189;-59
2022/12/26 12:06:46;;;;;;;7.13;6.43;;;;;;;;;;5040911;27;20214;-58
2022/12/26 12:09:18;;;;;;;6.78;5.85;;;;;;;;;;5040662;28;20509;-59
2022/12/26 12:11:49;;;;;;;10.15;6.10;;;;;;;;;;5040898;28;20198;-59
2022/12/26 12:14:23;;;;;;;6.28;4.65;;;;;;;;;;5040787;28;20197;-58
2022/12/26 12:17:00;;;;;;;6.15;4.63;;;;;;;;;;5041137;28;20417;-59
2022/12/26 12:19:32;;;;;;;4.65;4.35;;;;;;;;;;5040572;27;20190;-59
2022/12/26 12:22:17;;;;;;;7.97;4.97;;;;;;;;;;5040689;28;20255;-59
2022/12/26 12:24:51;;;;;;;5.53;5.13;;;;;;;;;;5040945;28;20205;-59
2022/12/26 12:27:21;;;;;;;8.23;5.78;;;;;;;;;;5040867;28;20221;-59
2022/12/26 12:30:10;;;;;;;7.72;6.22;;;;;;;;;;5040206;28;20198;-59
2022/12/26 12:32:43;;;;;;;6.75;5.78;;;;;;;;;;5040130;28;20198;-59
2022/12/26 12:35:18;;;;;;;9.45;6.05;;;;;;;;;;5040676;28;20198;-59
2022/12/26 12:37:59;;;;;;;10.57;6.03;;;;;;;;;;5040700;28;20238;-59
2022/12/26 12:40:31;;;;;;;8.05;5.50;;;;;;;;;;5040381;28;20235;-59
2022/12/26 12:43:04;;;;;;;5.53;5.00;;;;;;;;;;5040404;28;20242;-59
2022/12/26 12:45:32;;;;;;;5.95;5.50;;;;;;;;;;5040237;28;20233;-59
2022/12/26 12:48:08;;;;;;;5.13;4.63;;;;;;;;;;5040190;28;20229;-59
2022/12/26 12:50:38;;;;;;;4.38;3.97;;;;;;;;;;5040394;28;20216;-58
2022/12/26 12:53:18;;;;;;;3.78;3.45;;;;;;;;;;5040326;28;20198;-58
2022/12/26 12:55:51;;;;;;;5.30;4.80;;;;;;;;;;5040125;28;20262;-57
2022/12/26 12:58:22;;;;;;;6.05;4.10;;;;;;;;;;5039919;28;20198;-60
2022/12/26 13:00:50;;;;;;;3.55;3.25;;;;;;;;;;5039959;28;20198;-58
2022/12/26 13:03:25;;;;;;;3.90;3.60;;;;;;;;;;5040091;28;20205;-58
2022/12/26 13:05:55;;;;;;;3.88;3.50;;;;;;;;;;5040089;28;20505;-58
2022/12/26 13:08:23;;;;;;;3.30;3.00;;;;;;;;;;5039444;28;20402;-59
2022/12/26 13:10:51;;;;;;;4.95;4.45;;;;;;;;;;5040153;28;20243;-58
2022/12/26 13:13:20;;;;;;;3.67;3.38;;;;;;;;;;5039890;28;20209;-58
2022/12/26 13:15:48;;;;;;;2.50;2.40;;;;;;;;;;5039985;28;20551;-58
2022/12/26 13:18:16;;;;;;;2.17;1.88;;;;;;;;;;5039391;28;20202;-58
2022/12/26 13:20:46;;;;;;;1.75;1.65;;;;;;;;;;5039652;28;20205;-57
2022/12/26 13:26:05;;;;;;;4.43;4.03;;;;;;;;;;5039658;28;20200;-58
2022/12/26 13:28:34;;;;;;;2.55;2.45;;;;;;;;;;5039144;28;20517;-58
2022/12/26 13:31:00;;;;;;;2.80;2.70;;;;;;;;;;5039752;28;20202;-58
2022/12/26 13:33:27;;;;;;;5.45;4.30;;;;;;;;;;5039522;28;20521;-58
2022/12/26 13:35:56;;;;;;;1.20;1.20;;;;;;;;;;5039561;28;20209;-58
2022/12/26 13:38:23;;;;;;;2.05;1.40;;;;;;;;;;5039528;28;20370;-56
2022/12/26 13:40:53;;;;;;;3.03;1.30;;;;;;;;;;5039561;28;20201;-58
2022/12/26 13:46:03;;;;;;;1.92;1.77;;;;;;;;;;5032125;28;20266;-56
2022/12/26 13:48:48;;;;;;;1.83;1.70;;;;;;;;;;5039154;28;20221;-58
2022/12/26 13:51:29;;;;;;;1.48;1.40;;;;;;;;;;5039552;28;20379;-56
2022/12/26 13:53:59;;;;;;;1.33;1.33;;;;;;;;;;5038958;28;20204;-58
2022/12/26 13:56:40;;;;;;;1.30;1.30;;;;;;;;;;5039177;28;20198;-58
2022/12/26 13:59:11;;;;;;;1.25;1.25;;;;;;;;;;5038779;28;20201;-59
2022/12/26 14:01:42;;;;;;;1.40;1.30;;;;;;;;;;5039353;28;20423;-56
2022/12/26 14:04:19;;;;;;;1.10;1.10;;;;;;;;;;5039139;28;20198;-57
2022/12/26 14:07:00;;;;;;;1.42;1.42;;;;;;;;;;5039011;28;20198;-58
2022/12/26 14:09:47;;;;;;;1.13;1.13;;;;;;;;;;5039024;28;20198;-59
2022/12/26 14:12:35;;;;;;;1.20;1.17;;;;;;;;;;5041969;28;20198;-58
2022/12/26 14:15:07;;;;;;;1.40;1.30;;;;;;;;;;5039503;28;20234;-59
2022/12/26 14:17:38;;;;;;;1.10;1.10;;;;;;;;;;5039040;28;20194;-59
2022/12/26 14:20:10;;;;;;;5.15;2.92;;;;;;;;;;5038775;28;20243;-58
2022/12/26 14:22:41;;;;;;;3.42;2.78;;;;;;;;;;5038997;28;20198;-59
2022/12/26 14:25:14;;;;;;;2.95;2.75;;;;;;;;;;5038790;28;20558;-57
2022/12/26 14:27:44;;;;;;;2.28;2.15;;;;;;;;;;5038751;28;20282;-59
2022/12/26 14:30:22;;;;;;;2.17;2.08;;;;;;;;;;5038564;28;20528;-57
2022/12/26 14:32:54;;;;;;;1.77;1.67;;;;;;;;;;5038939;28;20235;-59
2022/12/26 14:35:27;;;;;;;2.17;1.85;;;;;;;;;;5038930;28;20198;-59
2022/12/26 14:37:57;;;;;;;1.95;1.85;;;;;;;;;;5038574;28;20194;-58
2022/12/26 14:40:27;;;;;;;1.88;1.85;;;;;;;;;;5038666;28;20204;-59
2022/12/26 14:43:19;;;;;;;1.95;1.95;;;;;;;;;;5039169;28;20269;-59
2022/12/26 14:45:49;;;;;;;1.35;1.35;;;;;;;;;;5062232;28;20194;-59
2022/12/26 14:48:34;;;;;;;1.40;1.40;;;;;;;;;;5038048;28;20289;-58
2022/12/26 14:51:15;;;;;;;1.38;1.30;;;;;;;;;;5038754;28;20437;-59
2022/12/26 14:53:42;;;;;;;0.90;0.90;;;;;;;;;;5038456;28;20202;-59
2022/12/26 14:56:23;;;;;;;2.80;1.30;;;;;;;;;;5040823;28;20206;-58
2022/12/26 14:58:50;;;;;;;2.05;1.17;;;;;;;;;;5041319;28;20194;-58
2022/12/26 15:01:35;;;;;;;1.27;1.17;;;;;;;;;;5041945;28;20229;-59
2022/12/26 15:04:05;;;;;;;1.30;1.27;;;;;;;;;;5041756;28;20198;-59
2022/12/26 15:06:50;;;;;;;1.60;1.50;;;;;;;;;;5042109;28;20255;-59
2022/12/26 15:09:28;;;;;;;1.73;1.58;;;;;;;;;;5035761;28;20411;-58
2022/12/26 15:12:04;;;;;;;1.42;1.42;;;;;;;;;;5040701;28;20542;-59
2022/12/26 15:14:51;;;;;;;1.75;1.65;;;;;;;;;;5032573;27;20196;-59
2022/12/26 15:17:21;;;;;;;2.15;2.05;;;;;;;;;;5032399;28;20220;-59
2022/12/26 15:20:09;;;;;;;1.85;1.77;;;;;;;;;;5032334;28;20262;-59
2022/12/26 15:22:59;;;;;;;1.55;1.48;;;;;;;;;;5030805;28;20198;-59
2022/12/26 15:25:45;;;;;;;1.40;1.40;;;;;;;;;;5021505;28;20203;-60
2022/12/26 15:28:22;;;;;;;1.50;1.50;;;;;;;;;;5020743;28;20525;-59
2022/12/26 15:31:06;;;;;;;1.85;1.85;;;;;;;;;;5021512;28;20205;-59
2022/12/26 15:33:37;;;;;;;2.53;2.33;;;;;;;;;;5017164;28;20410;-58
2022/12/26 15:36:06;;;;;;;2.80;2.60;;;;;;;;;;5027442;28;20210;-59
2022/12/26 15:38:36;;;;;;;2.75;2.53;;;;;;;;;;5032399;28;20206;-58
2022/12/26 15:41:13;;;;;;;2.67;2.53;;;;;;;;;;5025363;28;20210;-59
2022/12/26 15:43:53;;;;;;;1.90;1.80;;;;;;;;;;5027592;28;20214;-61
2022/12/26 15:46:21;;;;;;;2.28;2.08;;;;;;;;;;5038792;28;20194;-59
2022/12/26 15:49:11;;;;;;;1.80;1.75;;;;;;;;;;5038673;28;20506;-59
2022/12/26 15:51:47;;;;;;;2.13;2.05;;;;;;;;;;5045472;28;20198;-66
2022/12/26 15:54:19;;;;;;;2.13;1.65;;;;;;;;;;5040263;28;20343;-66
2022/12/26 15:56:50;;;;;;;1.85;1.75;;;;;;;;;;5040739;28;20198;-65
2022/12/26 15:59:39;;;;;;;1.60;1.50;;;;;;;;;;5040751;28;20201;-66
2022/12/26 16:02:11;;;;;;;1.63;1.50;;;;;;;;;;5041031;28;20502;-66
2022/12/26 16:04:39;;;;;;;2.45;1.67;;;;;;;;;;5040809;28;20259;-66
2022/12/26 16:07:17;;;;;;;1.05;1.05;;;;;;;;;;5039678;28;20509;-66
2022/12/26 16:09:44;;;;;;;1.50;1.48;;;;;;;;;;5039988;28;20198;-66
2022/12/26 16:12:21;;;;;;;1.52;1.52;;;;;;;;;;5040800;28;20235;-66
2022/12/26 16:14:48;;;;;;;3.53;2.28;;;;;;;;;;5040648;28;20422;-66
2022/12/26 16:17:19;;;;;;;2.40;1.60;;;;;;;;;;5040504;28;20522;-66
2022/12/26 16:19:46;;;;;;;1.90;1.90;;;;;;;;;;5040102;28;20374;-66
2022/12/26 16:25:00;;;;;;;1.90;1.88;;;;;;;;;;5040548;28;20262;-66
2022/12/26 16:27:26;;;;;;;2.60;2.40;;;;;;;;;;5040352;28;20221;-66
2022/12/26 16:29:55;;;;;;;1.90;1.60;;;;;;;;;;5039941;28;20243;-66
2022/12/26 16:32:24;;;;;;;2.13;2.08;;;;;;;;;;5040286;28;20210;-66
2022/12/26 16:34:51;;;;;;;4.00;2.70;;;;;;;;;;5040559;28;20208;-66
2022/12/26 16:37:19;;;;;;;3.33;2.92;;;;;;;;;;5040369;28;20374;-66
2022/12/26 16:39:46;;;;;;;3.17;2.60;;;;;;;;;;5039794;28;20198;-66
2022/12/26 16:42:27;;;;;;;3.03;2.83;;;;;;;;;;5040218;28;20206;-66
2022/12/26 16:44:55;;;;;;;2.83;2.30;;;;;;;;;;5040126;28;20197;-66
2022/12/26 16:47:21;;;;;;;2.00;2.00;;;;;;;;;;5039808;28;20201;-66
2022/12/26 16:49:48;;;;;;;2.47;2.38;;;;;;;;;;5039847;28;20205;-66
2022/12/26 16:52:29;;;;;;;2.63;2.33;;;;;;;;;;5040163;28;20243;-66
2022/12/26 16:54:56;;;;;;;6.13;3.35;;;;;;;;;;5040014;28;20197;-66
2022/12/26 16:57:22;;;;;;;2.60;2.40;;;;;;;;;;5039949;28;20201;-66
2022/12/26 16:59:51;;;;;;;1.98;1.88;;;;;;;;;;5039379;28;20198;-66
2022/12/26 17:02:19;;;;;;;1.75;1.65;;;;;;;;;;5040064;28;20198;-66
2022/12/26 17:04:49;;;;;;;2.42;2.33;;;;;;;;;;5039748;28;20197;-66
2022/12/26 17:07:16;;;;;;;2.08;1.98;;;;;;;;;;5039809;28;20422;-66
2022/12/26 17:09:45;;;;;;;2.00;1.90;;;;;;;;;;5039194;28;20218;-66